createdAt,value
2019-03-27T00:02:05.975Z,6.08
2019-03-27T00:04:35.924Z,6.02
2019-03-27T00:07:05.780Z,5.97
2019-03-27T00:09:35.743Z,5.92
2019-03-27T00:12:05.682Z,5.90
2019-03-27T00:14:35.624Z,5.83
2019-03-27T00:17:05.567Z,5.69
2019-03-27T00:19:35.451Z,5.55
2019-03-27T00:22:05.649Z,5.57
2019-03-27T00:24:37.649Z,5.60
2019-03-27T00:27:07.504Z,5.67
2019-03-27T00:29:37.485Z,5.66
2019-03-27T00:32:07.494Z,5.58
2019-03-27T00:34:37.414Z,5.57
2019-03-27T00:37:07.342Z,5.59
2019-03-27T00:39:37.682Z,5.54
2019-03-27T00:42:07.626Z,5.47
2019-03-27T00:44:38.665Z,5.39
2019-03-27T00:47:10.129Z,5.31
2019-03-27T00:49:40.015Z,5.40
2019-03-27T00:52:10.020Z,5.35
2019-03-27T00:54:39.889Z,5.19
2019-03-27T00:57:09.772Z,5.10
2019-03-27T00:59:39.710Z,5.06
2019-03-27T01:02:09.727Z,5.00
2019-03-27T01:04:40.037Z,4.94
2019-03-27T01:07:10.110Z,4.87
2019-03-27T01:09:40.088Z,4.84
2019-03-27T01:12:10.150Z,4.81
2019-03-27T01:14:40.071Z,4.85
2019-03-27T01:17:10.341Z,4.80
2019-03-27T01:19:40.236Z,4.84
2019-03-27T01:22:10.141Z,4.80
2019-03-27T01:24:39.982Z,4.84
2019-03-27T01:27:09.944Z,4.87
2019-03-27T01:29:39.930Z,4.90
2019-03-27T01:32:10.674Z,4.89
2019-03-27T01:34:40.669Z,4.94
2019-03-27T01:37:11.132Z,5.01
2019-03-27T01:39:41.106Z,5.01
2019-03-27T01:42:11.123Z,5.00
2019-03-27T01:44:41.127Z,4.94
2019-03-27T01:47:11.046Z,4.92
2019-03-27T01:49:41.012Z,4.94
2019-03-27T01:52:10.953Z,4.84
2019-03-27T01:54:41.158Z,4.72
2019-03-27T01:57:11.149Z,4.63
2019-03-27T01:59:41.074Z,4.39
2019-03-27T02:02:11.031Z,4.19
2019-03-27T02:04:41.020Z,4.04
2019-03-27T02:07:10.933Z,4.03
2019-03-27T02:09:40.905Z,4.00
2019-03-27T02:12:11.231Z,3.96
2019-03-27T02:14:40.987Z,3.90
2019-03-27T02:17:11.004Z,3.79
2019-03-27T02:19:40.841Z,3.65
2019-03-27T02:22:12.951Z,3.54
2019-03-27T02:24:42.900Z,3.52
2019-03-27T02:27:12.811Z,3.52
2019-03-27T02:29:42.599Z,3.50
2019-03-27T02:32:12.583Z,3.33
2019-03-27T02:34:42.437Z,3.18
2019-03-27T02:37:12.356Z,3.24
2019-03-27T02:39:42.324Z,3.21
2019-03-27T02:42:12.300Z,3.16
2019-03-27T02:44:42.129Z,2.98
2019-03-27T02:47:12.203Z,2.75
2019-03-27T02:49:42.089Z,2.64
2019-03-27T02:52:12.009Z,2.60
2019-03-27T02:54:41.949Z,2.50
2019-03-27T02:57:11.886Z,2.45
2019-03-27T02:59:41.670Z,2.56
2019-03-27T03:02:11.568Z,2.73
2019-03-27T03:04:41.504Z,2.94
2019-03-27T03:07:11.471Z,3.13
2019-03-27T03:09:41.302Z,3.50
2019-03-27T03:12:11.095Z,3.85
2019-03-27T03:14:41.056Z,4.15
2019-03-27T03:17:11.007Z,4.34
2019-03-27T03:19:41.014Z,4.64
2019-03-27T03:22:10.908Z,4.84
2019-03-27T03:24:40.707Z,4.93
2019-03-27T03:27:10.903Z,5.00
2019-03-27T03:29:40.874Z,5.09
2019-03-27T03:32:10.798Z,5.11
2019-03-27T03:34:40.652Z,5.22
2019-03-27T03:37:10.607Z,5.26
2019-03-27T03:39:40.566Z,5.31
2019-03-27T03:42:10.372Z,5.32
2019-03-27T03:44:40.391Z,5.32
2019-03-27T03:47:10.340Z,5.42
2019-03-27T03:49:40.272Z,5.46
2019-03-27T03:52:10.683Z,5.45
2019-03-27T03:54:40.969Z,5.51
2019-03-27T03:57:10.981Z,5.54
2019-03-27T03:59:41.500Z,5.59
2019-03-27T04:02:11.308Z,5.65
2019-03-27T04:04:43.749Z,5.72
2019-03-27T04:07:14.011Z,5.81
2019-03-27T04:09:43.969Z,5.68
2019-03-27T04:12:13.946Z,5.71
2019-03-27T04:14:43.800Z,5.74
2019-03-27T04:17:17.519Z,5.73
2019-03-27T04:19:45.323Z,5.70
2019-03-27T04:22:15.282Z,5.74
2019-03-27T04:24:45.642Z,5.72
2019-03-27T04:27:15.511Z,5.74
2019-03-27T04:29:45.509Z,5.76
2019-03-27T04:32:15.365Z,5.71
2019-03-27T04:34:47.450Z,5.75
2019-03-27T04:37:17.031Z,5.68
2019-03-27T04:39:46.835Z,5.75
2019-03-27T04:42:17.227Z,5.79
2019-03-27T04:44:47.081Z,5.77
2019-03-27T04:47:31.171Z,5.79
2019-03-27T04:49:48.879Z,5.86
2019-03-27T04:52:18.711Z,5.87
2019-03-27T04:54:48.737Z,5.91
2019-03-27T04:57:18.694Z,5.86
2019-03-27T04:59:48.531Z,5.85
2019-03-27T05:02:18.354Z,5.84
2019-03-27T05:04:48.644Z,5.95
2019-03-27T05:07:18.577Z,5.90
2019-03-27T05:09:48.623Z,5.92
2019-03-27T05:12:18.580Z,5.94
2019-03-27T05:14:48.490Z,5.95
2019-03-27T05:17:18.508Z,5.91
2019-03-27T05:19:48.458Z,5.87
2019-03-27T05:22:18.444Z,5.91
2019-03-27T05:24:48.407Z,5.93
2019-03-27T05:27:18.322Z,6.00
2019-03-27T05:29:48.309Z,6.05
2019-03-27T05:32:18.273Z,6.05
2019-03-27T05:34:48.341Z,6.06
2019-03-27T05:37:18.211Z,6.12
2019-03-27T05:39:49.157Z,6.13
2019-03-27T05:42:19.127Z,6.06
2019-03-27T05:44:51.136Z,6.04
2019-03-27T05:47:21.044Z,6.03
2019-03-27T05:49:50.931Z,6.04
2019-03-27T05:52:20.861Z,6.11
2019-03-27T05:54:50.722Z,6.16
2019-03-27T05:57:20.996Z,6.21
2019-03-27T05:59:50.991Z,6.27
2019-03-27T06:02:21.888Z,6.35
2019-03-27T06:04:51.913Z,6.45
2019-03-27T06:07:21.811Z,6.55
2019-03-27T06:09:51.874Z,6.67
2019-03-27T06:12:21.766Z,6.79
2019-03-27T06:14:52.712Z,6.86
2019-03-27T06:17:23.097Z,6.85
2019-03-27T06:19:53.090Z,6.85
2019-03-27T06:22:22.940Z,6.82
2019-03-27T06:24:52.835Z,6.73
2019-03-27T06:27:22.842Z,6.66
2019-03-27T06:29:52.816Z,6.70
2019-03-27T06:32:22.763Z,6.65
2019-03-27T06:34:52.727Z,6.82
2019-03-27T06:37:22.591Z,7.00
2019-03-27T06:39:53.377Z,6.83
2019-03-27T06:42:24.433Z,6.70
2019-03-27T06:44:54.518Z,6.77
2019-03-27T06:47:24.478Z,6.99
2019-03-27T06:49:54.374Z,7.00
2019-03-27T06:52:24.268Z,7.14
2019-03-27T06:54:54.688Z,7.16
2019-03-27T06:57:24.590Z,7.06
2019-03-27T06:59:54.521Z,7.42
2019-03-27T07:02:28.499Z,7.52
2019-03-27T07:04:56.158Z,7.53
2019-03-27T07:07:26.277Z,7.20
2019-03-27T07:09:56.108Z,6.79
2019-03-27T07:12:27.757Z,6.91
2019-03-27T07:14:57.737Z,7.40
2019-03-27T07:17:27.768Z,7.65
2019-03-27T07:19:57.711Z,7.29
2019-03-27T07:22:27.659Z,7.53
2019-03-27T07:24:57.617Z,7.37
2019-03-27T07:27:27.445Z,7.73
2019-03-27T07:29:57.419Z,8.05
2019-03-27T07:32:27.411Z,8.28
2019-03-27T07:34:57.387Z,8.29
2019-03-27T07:37:27.393Z,8.25
2019-03-27T07:39:57.362Z,7.64
2019-03-27T07:42:28.874Z,7.16
2019-03-27T07:44:59.022Z,7.79
2019-03-27T07:47:28.896Z,8.14
2019-03-27T07:49:58.800Z,8.32
2019-03-27T07:52:28.760Z,8.51
2019-03-27T07:54:58.711Z,8.64
2019-03-27T07:57:28.642Z,8.94
2019-03-27T07:59:58.540Z,8.39
2019-03-27T08:02:29.865Z,8.74
2019-03-27T08:04:59.819Z,8.81
2019-03-27T08:07:29.852Z,8.93
2019-03-27T08:09:59.807Z,8.84
2019-03-27T08:12:29.788Z,8.89
2019-03-27T08:14:59.729Z,9.14
2019-03-27T08:17:29.778Z,8.82
2019-03-27T08:19:59.740Z,8.89
2019-03-27T08:22:29.692Z,8.98
2019-03-27T08:25:00.431Z,8.52
2019-03-27T08:27:30.383Z,8.92
2019-03-27T08:30:01.300Z,8.81
2019-03-27T08:32:31.238Z,8.63
2019-03-27T08:35:01.939Z,8.68
2019-03-27T08:37:32.241Z,8.50
2019-03-27T08:40:02.122Z,8.08
2019-03-27T08:42:32.089Z,8.12
2019-03-27T08:45:02.035Z,7.86
2019-03-27T08:47:31.951Z,8.09
2019-03-27T08:50:01.888Z,8.05
2019-03-27T08:52:31.829Z,8.00
2019-03-27T08:55:01.826Z,8.01
2019-03-27T08:57:31.836Z,8.31
2019-03-27T09:00:02.829Z,8.47
2019-03-27T09:02:32.924Z,8.40
2019-03-27T09:05:02.920Z,8.54
2019-03-27T09:07:33.698Z,8.63
2019-03-27T09:10:03.707Z,8.44
2019-03-27T09:12:33.967Z,8.86
2019-03-27T09:15:03.877Z,9.40
2019-03-27T09:17:33.845Z,9.70
2019-03-27T09:20:05.897Z,9.60
2019-03-27T09:22:36.997Z,9.30
2019-03-27T09:25:08.135Z,9.18
2019-03-27T09:27:38.186Z,9.10
2019-03-27T09:30:09.283Z,9.00
2019-03-27T09:32:39.562Z,8.87
2019-03-27T09:35:09.616Z,9.03
2019-03-27T09:37:39.668Z,8.83
2019-03-27T09:40:11.839Z,8.60
2019-03-27T09:42:41.833Z,8.68
2019-03-27T09:45:13.263Z,8.69
2019-03-27T09:47:43.309Z,8.51
2019-03-27T09:50:13.501Z,8.75
2019-03-27T09:52:44.567Z,8.93
2019-03-27T09:55:15.051Z,9.25
2019-03-27T09:57:48.530Z,9.64
2019-03-27T10:00:23.864Z,10.28
2019-03-27T10:02:57.140Z,10.69
2019-03-27T10:05:28.364Z,10.69
2019-03-27T10:07:58.450Z,10.89
2019-03-27T10:10:28.531Z,11.12
2019-03-27T10:12:58.970Z,10.50
2019-03-27T10:15:31.874Z,10.89
2019-03-27T10:18:01.708Z,11.22
2019-03-27T10:20:31.622Z,11.79
2019-03-27T10:23:01.471Z,12.35
2019-03-27T10:25:31.535Z,12.01
2019-03-27T10:28:01.450Z,12.41
2019-03-27T10:30:31.404Z,11.29
2019-03-27T10:33:07.122Z,12.02
2019-03-27T10:35:38.090Z,11.98
2019-03-27T10:38:08.071Z,12.52
2019-03-27T10:40:38.092Z,11.70
2019-03-27T10:43:10.113Z,12.22
2019-03-27T10:45:43.208Z,11.48
2019-03-27T10:48:13.976Z,11.85
2019-03-27T10:50:43.909Z,11.90
2019-03-27T10:53:13.850Z,12.99
2019-03-27T10:55:44.787Z,13.29
2019-03-27T10:58:17.895Z,13.96
2019-03-27T11:00:48.227Z,14.54
2019-03-27T11:03:25.408Z,14.39
2019-03-27T11:05:56.300Z,13.23
2019-03-27T11:08:26.197Z,13.00
2019-03-27T11:10:56.015Z,13.20
2019-03-27T11:13:26.039Z,13.28
2019-03-27T11:15:56.102Z,12.72
2019-03-27T11:18:26.199Z,12.80
2019-03-27T11:20:57.224Z,13.03
2019-03-27T11:23:27.150Z,13.38
2019-03-27T11:25:57.494Z,12.96
2019-03-27T11:28:27.729Z,12.51
2019-03-27T11:30:57.855Z,12.85
2019-03-27T11:33:29.053Z,13.21
2019-03-27T11:36:02.459Z,13.82
2019-03-27T11:41:54.690Z,12.03
2019-03-27T11:44:47.516Z,12.04
2019-03-27T11:47:53.057Z,11.70
2019-03-27T11:51:29.677Z,12.14
2019-03-27T11:54:24.024Z,12.75
2019-03-27T11:57:25.758Z,13.04
2019-03-27T12:00:06.336Z,13.67
2019-03-27T12:02:39.382Z,12.82
2019-03-27T12:05:12.843Z,12.03
2019-03-27T12:07:47.448Z,12.77
2019-03-27T12:10:21.645Z,13.13
2019-03-27T12:12:53.576Z,13.99
2019-03-27T12:15:43.362Z,14.67
2019-03-27T12:22:07.885Z,15.22
2019-03-27T12:24:47.263Z,14.45
2019-03-27T12:27:37.804Z,14.69
2019-03-27T12:30:21.353Z,14.48
2019-03-27T12:36:11.225Z,14.49
2019-03-27T12:43:42.177Z,14.52
2019-03-27T12:46:19.290Z,14.45
2019-03-27T13:19:10.157Z,14.64
2019-03-27T13:22:02.411Z,15.61
2019-03-27T13:25:50.873Z,15.42
2019-03-27T13:29:02.446Z,14.47
2019-03-27T13:47:18.027Z,14.24
2019-03-27T13:54:49.527Z,15.17
2019-03-27T15:33:33.815Z,18.69
2019-03-27T15:55:27.385Z,18.75
2019-03-27T16:01:38.258Z,16.12
2019-03-27T16:05:05.767Z,14.79
2019-03-27T16:10:29.026Z,13.81
2019-03-27T16:13:05.231Z,13.47
2019-03-27T16:16:29.104Z,13.42
2019-03-27T16:19:32.632Z,13.38
2019-03-27T16:22:07.736Z,12.91
2019-03-27T16:24:47.196Z,13.17
2019-03-27T16:27:19.852Z,13.33
2019-03-27T16:30:30.780Z,13.55
2019-03-27T16:33:53.392Z,13.55
2019-03-27T16:37:11.744Z,13.19
2019-03-27T16:43:58.673Z,13.67
2019-03-27T16:46:49.440Z,13.66
2019-03-27T16:49:55.931Z,13.19
2019-03-27T16:59:57.983Z,12.91
2019-03-27T17:02:42.332Z,12.85
2019-03-27T17:05:15.935Z,12.49
2019-03-27T17:08:02.278Z,12.48
2019-03-27T17:11:04.107Z,12.47
2019-03-27T17:14:06.841Z,12.48
2019-03-27T17:17:03.041Z,12.37
2019-03-27T17:19:54.592Z,12.19
2019-03-27T17:22:35.464Z,12.03
2019-03-27T17:25:39.867Z,11.78
2019-03-27T17:28:13.615Z,11.78
2019-03-27T17:30:47.334Z,11.68
2019-03-27T17:33:27.879Z,11.60
2019-03-27T17:35:58.548Z,11.56
2019-03-27T17:38:29.513Z,11.50
2019-03-27T17:41:13.025Z,11.44
2019-03-27T17:43:44.978Z,11.43
2019-03-27T17:46:37.059Z,11.35
2019-03-27T17:49:13.407Z,11.33
2019-03-27T17:51:50.833Z,11.31
2019-03-27T17:54:24.511Z,11.27
2019-03-27T17:56:56.074Z,11.23
2019-03-27T17:59:31.696Z,11.27
2019-03-27T18:02:04.634Z,11.24
2019-03-27T18:04:40.634Z,11.19
2019-03-27T18:07:13.554Z,11.15
2019-03-27T18:09:47.501Z,11.10
2019-03-27T18:12:24.894Z,11.05
2019-03-27T18:15:08.398Z,11.04
2019-03-27T18:17:43.675Z,11.01
2019-03-27T18:20:14.887Z,10.97
2019-03-27T18:23:03.447Z,10.94
2019-03-27T18:25:37.083Z,10.91
2019-03-27T18:28:09.517Z,10.90
2019-03-27T18:30:43.275Z,10.86
2019-03-27T18:33:20.097Z,10.81
2019-03-27T18:35:53.203Z,10.78
2019-03-27T18:38:28.973Z,10.82
2019-03-27T18:40:59.283Z,10.78
2019-03-27T18:43:30.371Z,10.79
2019-03-27T18:46:00.758Z,10.70
2019-03-27T18:48:32.639Z,10.64
2019-03-27T18:51:05.379Z,10.56
2019-03-27T18:53:38.233Z,10.53
2019-03-27T18:56:09.262Z,10.50
2019-03-27T18:58:40.294Z,10.48
2019-03-27T19:01:11.304Z,10.52
2019-03-27T19:03:43.651Z,10.54
2019-03-27T19:06:16.483Z,10.53
2019-03-27T19:08:55.254Z,10.51
2019-03-27T19:11:25.877Z,10.52
2019-03-27T19:13:56.880Z,10.43
2019-03-27T19:16:28.718Z,10.42
2019-03-27T19:18:59.198Z,10.33
2019-03-27T19:21:30.050Z,10.24
2019-03-27T19:24:13.301Z,10.16
2019-03-27T19:26:34.060Z,10.06
2019-03-27T19:29:04.571Z,10.04
2019-03-27T19:31:34.919Z,9.99
2019-03-27T19:34:06.634Z,9.93
2019-03-27T19:36:41.517Z,9.89
2019-03-27T19:39:11.972Z,9.81
2019-03-27T19:41:42.387Z,9.69
2019-03-27T19:44:13.010Z,9.57
2019-03-27T19:46:43.292Z,9.59
2019-03-27T19:49:13.767Z,9.53
2019-03-27T19:51:44.198Z,9.48
2019-03-27T19:54:26.477Z,9.38
2019-03-27T19:56:48.238Z,9.30
2019-03-27T19:59:20.435Z,9.34
2019-03-27T20:01:51.189Z,9.47
2019-03-27T20:04:24.347Z,9.65
2019-03-27T20:06:55.553Z,9.86
2019-03-27T20:09:26.969Z,10.01
2019-03-27T20:11:57.868Z,10.06
2019-03-27T20:14:28.286Z,10.09
2019-03-27T20:16:59.172Z,10.16
2019-03-27T20:19:30.140Z,10.25
2019-03-27T20:22:02.668Z,10.34
2019-03-27T20:24:40.838Z,10.34
2019-03-27T20:27:05.727Z,10.40
2019-03-27T20:29:36.099Z,10.40
2019-03-27T20:32:09.450Z,10.41
2019-03-27T20:34:40.455Z,10.40
2019-03-27T20:37:10.768Z,10.41
2019-03-27T20:39:42.642Z,10.39
2019-03-27T20:42:13.405Z,10.38
2019-03-27T20:44:43.931Z,10.44
2019-03-27T20:47:14.452Z,10.43
2019-03-27T20:49:45.370Z,10.44
2019-03-27T20:52:15.577Z,10.45
2019-03-27T20:54:55.088Z,10.50
2019-03-27T20:57:24.347Z,10.47
2019-03-27T20:59:55.431Z,10.46
2019-03-27T21:02:27.972Z,10.41
2019-03-27T21:05:01.061Z,10.43
2019-03-27T21:07:31.496Z,10.38
2019-03-27T21:10:03.499Z,10.32
2019-03-27T21:12:34.279Z,10.30
2019-03-27T21:15:07.924Z,10.32
2019-03-27T21:17:39.274Z,10.34
2019-03-27T21:20:10.615Z,10.34
2019-03-27T21:22:41.072Z,10.33
2019-03-27T21:25:11.591Z,10.30
2019-03-27T21:27:42.008Z,10.27
2019-03-27T21:30:12.813Z,10.22
2019-03-27T21:32:43.163Z,10.25
2019-03-27T21:35:14.148Z,10.28
2019-03-27T21:37:44.459Z,10.23
2019-03-27T21:40:14.902Z,10.25
2019-03-27T21:42:44.867Z,10.23
2019-03-27T21:45:15.699Z,10.20
2019-03-27T21:47:46.768Z,10.19
2019-03-27T21:50:16.967Z,10.17
2019-03-27T21:52:59.514Z,10.16
2019-03-27T21:55:22.819Z,10.14
2019-03-27T21:57:51.694Z,10.10
2019-03-27T22:00:38.842Z,10.09
2019-03-27T22:03:09.381Z,10.03
2019-03-27T22:05:39.441Z,9.99
2019-03-27T22:08:10.621Z,9.98
2019-03-27T22:10:40.564Z,9.98
2019-03-27T22:13:10.611Z,9.97
2019-03-27T22:15:41.444Z,9.92
2019-03-27T22:18:11.479Z,9.91
2019-03-27T22:20:41.870Z,9.87
2019-03-27T22:23:11.855Z,9.90
2019-03-27T22:25:42.020Z,9.90
2019-03-27T22:28:12.075Z,9.82
2019-03-27T22:30:42.794Z,9.79
2019-03-27T22:33:12.902Z,9.78
2019-03-27T22:35:43.811Z,9.71
2019-03-27T22:38:13.791Z,9.72
2019-03-27T22:40:43.868Z,9.74
2019-03-27T22:43:13.887Z,9.75
2019-03-27T22:45:44.168Z,9.73
2019-03-27T22:48:14.602Z,9.72
2019-03-27T22:50:44.568Z,9.74
2019-03-27T22:53:14.615Z,9.74
2019-03-27T22:55:49.995Z,9.69
2019-03-27T22:58:16.646Z,9.64
2019-03-27T23:00:49.699Z,9.63
2019-03-27T23:03:20.142Z,9.60
2019-03-27T23:05:50.096Z,9.54
2019-03-27T23:08:20.161Z,9.49
2019-03-27T23:10:50.449Z,9.46
2019-03-27T23:13:23.082Z,9.43
2019-03-27T23:15:53.317Z,9.41
2019-03-27T23:18:23.212Z,9.38
2019-03-27T23:20:53.271Z,9.39
2019-03-27T23:23:23.740Z,9.38
2019-03-27T23:26:02.988Z,9.34
2019-03-27T23:28:25.438Z,9.32
2019-03-27T23:30:58.328Z,9.28
2019-03-27T23:33:28.790Z,9.26
2019-03-27T23:35:58.992Z,9.28
2019-03-27T23:38:28.960Z,9.28
2019-03-27T23:40:58.980Z,9.25
2019-03-27T23:43:28.989Z,9.22
2019-03-27T23:45:58.900Z,9.20
2019-03-27T23:48:28.779Z,9.15
2019-03-27T23:50:58.634Z,9.12
2019-03-27T23:53:29.044Z,9.09
2019-03-27T23:55:59.031Z,9.04
2019-03-27T23:58:30.568Z,8.97
